Terminal Aerodrome Forecast
Issued by NWS

Home | Current Version | Previous Version | Text Only | Print | Product List | Glossary On
Versions: 1 2 3 4 5 6 7 8 9 10 11 12 13 14 15 16 17 18 19 20
000
FTUS44 KLIX 161731
TAFMCB
TAF
KMCB 161731Z 1618/1718 17009KT P6SM BKN050
     FM170200 16006KT P6SM BKN030
     FM170600 17006KT 3SM BR BKN010
     FM170900 17005KT 3SM BR BKN003
     FM171600 20007KT P6SM BKN015=

USA.gov is the U.S. government's official web portal to all federal, state and local government web resources and services.